createdAt,value
2019-04-02T00:00:28.300Z,80.98
2019-04-02T00:01:28.316Z,81.26
2019-04-02T00:02:28.325Z,81.26
2019-04-02T00:03:26.826Z,81.74
2019-04-02T00:04:27.033Z,81.45
2019-04-02T00:05:28.819Z,82.12
2019-04-02T00:06:27.385Z,82.03
2019-04-02T00:07:28.988Z,81.88
2019-04-02T00:08:31.299Z,81.79
2019-04-02T00:09:35.809Z,81.79
2019-04-02T00:10:39.834Z,82.17
2019-04-02T00:11:29.307Z,82.74
2019-04-02T00:12:30.310Z,82.84
2019-04-02T00:13:30.320Z,82.84
2019-04-02T00:14:32.296Z,83.31
2019-04-02T00:15:30.800Z,83.31
2019-04-02T00:16:32.799Z,83.40
2019-04-02T00:17:29.257Z,83.59
2019-04-02T00:18:32.346Z,83.22
2019-04-02T00:19:31.299Z,83.31
2019-04-02T00:20:29.886Z,83.97
2019-04-02T00:21:31.236Z,85.02
2019-04-02T00:22:33.811Z,85.21
2019-04-02T00:23:32.322Z,85.21
2019-04-02T00:24:30.625Z,85.21
2019-04-02T00:25:32.807Z,85.74
2019-04-02T00:26:31.002Z,85.64
2019-04-02T00:27:34.797Z,85.93
2019-04-02T00:28:31.387Z,86.02
2019-04-02T00:29:35.318Z,85.93
2019-04-02T00:30:33.306Z,86.02
2019-04-02T00:31:32.047Z,85.74
2019-04-02T00:32:33.811Z,86.30
2019-04-02T00:33:32.273Z,86.30
2019-04-02T00:34:32.511Z,86.21
2019-04-02T00:35:35.237Z,86.49
2019-04-02T00:36:32.760Z,86.21
2019-04-02T00:37:32.966Z,86.68
2019-04-02T00:38:35.319Z,86.97
2019-04-02T00:39:35.389Z,87.25
2019-04-02T00:40:35.300Z,87.45
2019-04-02T00:41:33.758Z,87.06
2019-04-02T00:42:35.799Z,86.78
2019-04-02T00:43:34.129Z,86.78
2019-04-02T00:44:38.304Z,87.25
2019-04-02T00:45:36.300Z,87.82
2019-04-02T00:46:36.304Z,87.92
2019-04-02T00:47:36.314Z,87.63
2019-04-02T00:48:36.807Z,87.59
2019-04-02T00:49:38.810Z,87.77
2019-04-02T00:50:38.817Z,88.25
2019-04-02T00:51:39.299Z,88.54
2019-04-02T00:52:37.301Z,88.48
2019-04-02T00:53:35.746Z,88.73
2019-04-02T00:54:39.797Z,88.25
2019-04-02T00:55:36.141Z,88.16
2019-04-02T00:56:37.845Z,88.25
2019-04-02T00:57:38.302Z,88.16
2019-04-02T00:58:37.633Z,87.97
2019-04-02T00:59:37.876Z,88.06
2019-04-02T01:00:37.971Z,88.06
2019-04-02T01:01:52.817Z,87.77
2019-04-02T01:02:41.314Z,88.54
2019-04-02T01:03:37.503Z,88.73
2019-04-02T01:04:41.298Z,88.63
2019-04-02T01:05:37.866Z,88.44
2019-04-02T01:06:39.816Z,88.16
2019-04-02T01:07:39.797Z,88.35
2019-04-02T01:08:38.412Z,88.82
2019-04-02T01:09:40.301Z,89.39
2019-04-02T01:10:42.297Z,89.11
2019-04-02T01:11:40.809Z,89.58
2019-04-02T01:12:40.802Z,89.29
2019-04-02T01:13:54.805Z,89.86
2019-04-02T01:14:39.522Z,89.39
2019-04-02T01:15:41.297Z,89.67
2019-04-02T01:16:42.109Z,89.29
2019-04-02T01:17:51.845Z,89.67
2019-04-02T01:19:01.073Z,89.67
2019-04-02T01:19:47.802Z,89.29
2019-04-02T01:20:40.509Z,89.44
2019-04-02T01:21:48.341Z,89.72
2019-04-02T01:22:44.798Z,90.62
2019-04-02T01:23:42.795Z,90.53
2019-04-02T01:24:41.249Z,90.53
2019-04-02T01:25:41.451Z,90.72
2019-04-02T01:26:41.647Z,90.29
2019-04-02T01:27:41.847Z,90.62
2019-04-02T01:28:42.060Z,90.72
2019-04-02T01:29:43.273Z,90.48
2019-04-02T01:30:45.235Z,90.48
2019-04-02T01:31:44.681Z,90.29
2019-04-02T01:32:42.778Z,90.77
2019-04-02T01:33:43.975Z,91.24
2019-04-02T01:34:44.813Z,91.05
2019-04-02T01:35:43.245Z,90.95
2019-04-02T01:36:43.452Z,90.77
2019-04-02T01:37:46.093Z,90.86
2019-04-02T01:38:43.859Z,91.33
2019-04-02T01:39:45.803Z,90.77
2019-04-02T01:40:51.804Z,91.05
2019-04-02T01:41:44.408Z,91.05
2019-04-02T01:42:48.328Z,90.86
2019-04-02T01:43:46.299Z,91.24
2019-04-02T01:44:45.021Z,91.14
2019-04-02T01:46:00.797Z,91.71
2019-04-02T01:46:47.293Z,91.52
2019-04-02T01:47:45.374Z,90.86
2019-04-02T01:48:45.602Z,91.24
2019-04-02T01:49:47.302Z,91.24
2019-04-02T01:50:47.798Z,91.43
2019-04-02T01:51:46.009Z,91.62
2019-04-02T01:52:46.215Z,91.43
2019-04-02T01:53:48.299Z,91.05
2019-04-02T01:54:48.300Z,92.00
2019-04-02T01:55:46.744Z,91.43
2019-04-02T01:56:46.946Z,91.43
2019-04-02T01:57:50.086Z,91.33
2019-04-02T01:58:51.297Z,91.24
2019-04-02T01:59:49.267Z,91.81
2019-04-02T02:00:50.791Z,91.14
2019-04-02T02:01:47.902Z,91.43
2019-04-02T02:02:54.813Z,91.81
2019-04-02T02:03:51.810Z,91.90
2019-04-02T02:04:49.388Z,91.90
2019-04-02T02:05:48.606Z,91.43
2019-04-02T02:06:48.819Z,91.14
2019-04-02T02:07:50.027Z,92.00
2019-04-02T02:08:50.797Z,92.00
2019-04-02T02:09:49.419Z,92.00
2019-04-02T02:10:49.976Z,91.43
2019-04-02T02:11:50.800Z,91.52
2019-04-02T02:12:56.000Z,91.71
2019-04-02T02:13:50.197Z,91.71
2019-04-02T02:14:57.313Z,92.00
2019-04-02T02:15:51.548Z,91.71
2019-04-02T02:16:51.674Z,92.19
2019-04-02T02:17:52.603Z,92.19
2019-04-02T02:18:52.816Z,92.00
2019-04-02T02:19:51.034Z,91.05
2019-04-02T02:20:51.228Z,92.00
2019-04-02T02:21:53.307Z,91.62
2019-04-02T02:22:51.631Z,91.90
2019-04-02T02:23:53.801Z,91.71
2019-04-02T02:24:53.030Z,91.86
2019-04-02T02:25:53.181Z,91.67
2019-04-02T02:26:57.344Z,91.95
2019-04-02T02:27:52.603Z,92.14
2019-04-02T02:28:53.669Z,92.14
2019-04-02T02:29:56.811Z,92.14
2019-04-02T02:30:53.030Z,92.33
2019-04-02T02:31:53.120Z,92.33
2019-04-02T02:32:56.306Z,91.86
2019-04-02T02:33:55.302Z,92.00
2019-04-02T02:34:53.623Z,91.76
2019-04-02T02:35:54.838Z,91.67
2019-04-02T02:36:55.803Z,91.57
2019-04-02T02:37:57.837Z,91.67
2019-04-02T02:38:54.460Z,91.29
2019-04-02T02:39:56.344Z,92.24
2019-04-02T02:41:02.269Z,91.67
2019-04-02T02:41:56.798Z,92.14
2019-04-02T02:42:58.818Z,92.33
2019-04-02T02:43:56.805Z,92.14
2019-04-02T02:44:55.377Z,92.14
2019-04-02T02:45:55.587Z,91.86
2019-04-02T02:46:57.301Z,92.14
2019-04-02T02:48:01.996Z,92.14
2019-04-02T02:48:57.769Z,92.33
2019-04-02T02:49:58.299Z,92.90
2019-04-02T02:50:58.346Z,92.61
2019-04-02T02:51:58.298Z,92.71
2019-04-02T02:52:56.805Z,92.43
2019-04-02T02:53:56.924Z,92.52
2019-04-02T02:55:04.809Z,92.43
2019-04-02T02:55:57.243Z,92.52
2019-04-02T02:56:59.350Z,92.43
2019-04-02T02:57:59.305Z,92.71
2019-04-02T02:58:58.756Z,92.99
2019-04-02T02:59:57.978Z,92.80
2019-04-02T03:01:05.802Z,92.99
2019-04-02T03:02:00.300Z,92.90
2019-04-02T03:02:59.922Z,92.71
2019-04-02T03:03:59.927Z,93.08
2019-04-02T03:05:00.607Z,92.52
2019-04-02T03:06:14.832Z,92.43
2019-04-02T03:07:03.762Z,92.61
2019-04-02T03:08:02.852Z,92.52
2019-04-02T03:09:03.306Z,92.61
2019-04-02T03:10:04.389Z,92.52
2019-04-02T03:11:01.799Z,92.61
2019-04-02T03:12:01.126Z,93.08
2019-04-02T03:13:01.335Z,92.71
2019-04-02T03:14:01.262Z,92.71
2019-04-02T03:15:02.296Z,92.71
2019-04-02T03:16:01.903Z,92.90
2019-04-02T03:17:02.345Z,92.52
2019-04-02T03:18:03.745Z,93.08
2019-04-02T03:19:01.320Z,92.71
2019-04-02T03:20:03.295Z,92.71
2019-04-02T03:21:03.302Z,92.90
2019-04-02T03:22:03.818Z,92.90
2019-04-02T03:23:03.801Z,92.80
2019-04-02T03:24:03.846Z,93.08
2019-04-02T03:25:02.465Z,92.80
2019-04-02T03:26:06.334Z,92.90
2019-04-02T03:27:02.808Z,93.08
2019-04-02T03:28:03.005Z,92.80
2019-04-02T03:29:04.810Z,93.18
2019-04-02T03:30:05.310Z,92.80
2019-04-02T03:31:05.348Z,93.18
2019-04-02T03:32:10.441Z,93.65
2019-04-02T03:33:03.897Z,93.65
2019-04-02T03:34:11.367Z,93.65
2019-04-02T03:35:04.274Z,92.71
2019-04-02T03:36:05.131Z,93.08
2019-04-02T03:37:05.796Z,93.18
2019-04-02T03:38:07.472Z,92.90
2019-04-02T03:39:07.186Z,93.08
2019-04-02T03:40:08.979Z,92.52
2019-04-02T03:41:06.808Z,92.90
2019-04-02T03:42:10.315Z,92.52
2019-04-02T03:43:05.477Z,92.71
2019-04-02T03:44:09.308Z,92.52
2019-04-02T03:45:07.794Z,93.08
2019-04-02T03:46:06.040Z,92.61
2019-04-02T03:47:08.748Z,93.75
2019-04-02T03:48:08.297Z,93.46
2019-04-02T03:49:07.287Z,93.46
2019-04-02T03:50:06.776Z,93.56
2019-04-02T03:51:07.874Z,93.84
2019-04-02T03:52:08.096Z,93.65
2019-04-02T03:53:14.795Z,93.65
2019-04-02T03:54:08.495Z,93.94
2019-04-02T03:55:07.700Z,92.66
2019-04-02T03:56:07.911Z,92.29
2019-04-02T03:57:09.128Z,92.57
2019-04-02T03:58:09.241Z,92.76
2019-04-02T03:59:08.339Z,93.42
2019-04-02T04:00:10.299Z,93.13
2019-04-02T04:01:08.766Z,92.76
2019-04-02T04:02:37.793Z,92.76
2019-04-02T04:03:19.597Z,92.85
2019-04-02T04:04:25.903Z,92.94
2019-04-02T04:05:17.292Z,93.04
2019-04-02T04:06:09.621Z,93.32
2019-04-02T04:07:10.759Z,93.23
2019-04-02T04:08:12.754Z,93.70
2019-04-02T04:09:11.798Z,93.42
2019-04-02T04:10:16.820Z,93.89
2019-04-02T04:11:11.641Z,93.23
2019-04-02T04:12:18.328Z,93.70
2019-04-02T04:13:13.147Z,93.51
2019-04-02T04:14:11.021Z,93.23
2019-04-02T04:15:15.247Z,93.23
2019-04-02T04:16:12.412Z,93.51
2019-04-02T04:17:14.265Z,93.42
2019-04-02T04:18:13.295Z,93.51
2019-04-02T04:19:11.889Z,93.70
2019-04-02T04:20:41.182Z,93.80
2019-04-02T04:21:12.207Z,93.80
2019-04-02T04:22:14.345Z,93.70
2019-04-02T04:23:12.606Z,93.61
2019-04-02T04:24:12.723Z,93.89
2019-04-02T04:25:14.798Z,93.13
2019-04-02T04:26:14.800Z,93.61
2019-04-02T04:27:14.792Z,93.61
2019-04-02T04:28:14.799Z,93.51
2019-04-02T04:29:15.296Z,93.89
2019-04-02T04:30:15.313Z,93.51
2019-04-02T04:31:25.533Z,93.42
2019-04-02T04:32:15.830Z,93.51
2019-04-02T04:33:15.797Z,93.89
2019-04-02T04:34:15.262Z,93.51
2019-04-02T04:35:16.306Z,93.32
2019-04-02T04:36:15.532Z,93.32
2019-04-02T04:37:18.254Z,93.51
2019-04-02T04:38:16.768Z,93.89
2019-04-02T04:39:22.798Z,93.99
2019-04-02T04:40:30.793Z,93.51
2019-04-02T04:41:16.791Z,93.70
2019-04-02T04:42:15.479Z,93.70
2019-04-02T04:43:18.249Z,93.80
2019-04-02T04:44:20.913Z,94.37
2019-04-02T04:45:21.467Z,94.08
2019-04-02T04:46:15.991Z,94.46
2019-04-02T04:47:18.520Z,94.18
2019-04-02T04:48:18.296Z,94.46
2019-04-02T04:49:18.293Z,94.65
2019-04-02T04:50:17.251Z,94.74
2019-04-02T04:51:18.795Z,94.08
2019-04-02T04:52:32.839Z,94.08
2019-04-02T04:53:18.751Z,94.37
2019-04-02T04:54:19.293Z,94.65
2019-04-02T04:55:18.534Z,94.74
2019-04-02T04:56:19.319Z,94.27
2019-04-02T04:57:17.791Z,94.56
2019-04-02T04:58:54.796Z,94.37
2019-04-02T04:59:19.234Z,94.56
2019-04-02T05:00:24.320Z,94.56
2019-04-02T05:01:20.282Z,94.46
2019-04-02T05:02:36.247Z,94.46
2019-04-02T05:03:21.794Z,94.56
2019-04-02T05:04:19.288Z,94.65
2019-04-02T05:05:41.392Z,94.65
2019-04-02T05:06:23.297Z,94.37
2019-04-02T05:07:23.315Z,94.18
2019-04-02T05:08:20.943Z,94.27
2019-04-02T05:09:21.789Z,94.08
2019-04-02T05:10:21.805Z,94.65
2019-04-02T05:11:29.265Z,94.46
2019-04-02T05:12:22.292Z,94.84
2019-04-02T05:13:20.754Z,94.74
2019-04-02T05:14:24.812Z,94.65
2019-04-02T05:15:24.811Z,94.93
2019-04-02T05:16:24.797Z,94.56
2019-04-02T05:17:29.310Z,94.37
2019-04-02T05:18:23.299Z,94.93
2019-04-02T05:19:21.738Z,95.21
2019-04-02T05:20:21.948Z,95.31
2019-04-02T05:21:23.822Z,94.84
2019-04-02T05:22:22.283Z,94.84
2019-04-02T05:23:29.323Z,95.31
2019-04-02T05:24:27.306Z,95.69
2019-04-02T05:25:24.811Z,95.12
2019-04-02T05:26:26.801Z,95.45
2019-04-02T05:27:23.233Z,95.55
2019-04-02T05:28:26.351Z,95.45
2019-04-02T05:29:26.294Z,95.83
2019-04-02T05:30:23.753Z,95.74
2019-04-02T05:31:39.803Z,95.64
2019-04-02T05:32:25.799Z,95.98
2019-04-02T05:33:25.807Z,95.69
2019-04-02T05:34:27.119Z,95.98
2019-04-02T05:35:26.338Z,95.22
2019-04-02T05:36:26.294Z,95.12
2019-04-02T05:37:26.840Z,95.03
2019-04-02T05:38:26.799Z,95.17
2019-04-02T05:39:27.339Z,94.79
2019-04-02T05:40:28.251Z,94.60
2019-04-02T05:41:25.724Z,94.32
2019-04-02T05:42:29.811Z,93.18
2019-04-02T05:43:27.833Z,92.90
2019-04-02T05:44:27.792Z,93.61
2019-04-02T05:45:30.296Z,92.85
2019-04-02T05:46:28.292Z,93.04
2019-04-02T05:47:28.307Z,91.99
2019-04-02T05:48:38.865Z,92.47
2019-04-02T05:49:29.300Z,91.85
2019-04-02T05:50:27.356Z,91.47
2019-04-02T05:51:29.295Z,90.24
2019-04-02T05:52:29.301Z,90.62
2019-04-02T05:53:30.608Z,90.62
2019-04-02T05:54:29.638Z,90.33
2019-04-02T05:55:29.796Z,90.05
2019-04-02T05:56:44.497Z,89.67
2019-04-02T05:57:29.402Z,89.76
2019-04-02T05:58:35.327Z,89.76
2019-04-02T05:59:30.305Z,89.39
2019-04-02T06:00:30.815Z,89.24
2019-04-02T06:01:30.829Z,88.76
2019-04-02T06:02:30.824Z,88.67
2019-04-02T06:03:29.287Z,88.20
2019-04-02T06:04:29.498Z,88.20
2019-04-02T06:05:33.923Z,88.10
2019-04-02T06:06:32.750Z,87.29
2019-04-02T06:07:30.112Z,87.10
2019-04-02T06:08:31.824Z,86.53
2019-04-02T06:09:38.293Z,86.58
2019-04-02T06:10:32.608Z,86.39
2019-04-02T06:11:32.259Z,87.24
2019-04-02T06:12:31.033Z,87.19
2019-04-02T06:13:32.794Z,87.19
2019-04-02T06:14:31.390Z,86.34
2019-04-02T06:15:31.577Z,84.63
2019-04-02T06:16:33.299Z,84.44
2019-04-02T06:17:31.997Z,84.16
2019-04-02T06:18:32.220Z,84.25
2019-04-02T06:19:46.451Z,83.68
2019-04-02T06:20:32.642Z,83.72
2019-04-02T06:21:36.795Z,83.53
2019-04-02T06:22:33.003Z,82.96
2019-04-02T06:23:33.209Z,81.86
2019-04-02T06:24:37.296Z,80.53
2019-04-02T06:25:34.636Z,80.34
2019-04-02T06:26:33.832Z,79.30
2019-04-02T06:27:34.040Z,78.67
2019-04-02T06:28:34.255Z,77.91
2019-04-02T06:29:34.456Z,77.62
2019-04-02T06:30:36.295Z,76.90
2019-04-02T06:31:34.869Z,75.57
2019-04-02T06:32:36.821Z,74.62
2019-04-02T06:33:35.280Z,74.99
2019-04-02T06:34:35.491Z,73.95
2019-04-02T06:35:35.704Z,74.24
2019-04-02T06:36:37.796Z,74.20
2019-04-02T06:37:36.150Z,74.29
2019-04-02T06:38:40.293Z,75.34
2019-04-02T06:39:36.492Z,75.91
2019-04-02T06:40:36.714Z,75.47
2019-04-02T06:41:36.922Z,74.33
2019-04-02T06:42:38.861Z,73.95
2019-04-02T06:43:40.080Z,72.65
2019-04-02T06:44:37.556Z,71.89
2019-04-02T06:45:37.764Z,71.42
2019-04-02T06:46:37.980Z,71.80
2019-04-02T06:47:39.796Z,71.98
2019-04-02T06:48:40.301Z,71.89
2019-04-02T06:49:38.509Z,71.73
2019-04-02T06:50:38.721Z,71.13
2019-04-02T06:51:41.057Z,70.97
2019-04-02T06:52:39.171Z,70.31
2019-04-02T06:53:39.357Z,69.45
2019-04-02T06:54:39.578Z,69.29
2019-04-02T06:55:39.804Z,69.20
2019-04-02T06:56:40.007Z,68.05
2019-04-02T06:57:41.490Z,68.15
2019-04-02T06:58:40.453Z,67.90
2019-04-02T06:59:44.293Z,66.53
2019-04-02T07:00:40.888Z,66.18
2019-04-02T07:01:41.111Z,65.42
2019-04-02T07:02:41.324Z,64.97
2019-04-02T07:03:43.296Z,62.88
2019-04-02T07:04:41.751Z,62.30
2019-04-02T07:05:43.799Z,62.68
2019-04-02T07:06:42.000Z,63.16
2019-04-02T07:07:42.491Z,62.59
2019-04-02T07:08:47.319Z,61.76
2019-04-02T07:09:45.358Z,62.62
2019-04-02T07:10:44.802Z,61.51
2019-04-02T07:11:46.846Z,60.33
2019-04-02T07:12:44.815Z,61.32
2019-04-02T07:13:43.323Z,60.55
2019-04-02T07:14:46.332Z,59.72
2019-04-02T07:15:45.158Z,58.22
2019-04-02T07:16:45.797Z,57.75
2019-04-02T07:17:44.153Z,58.29
2019-04-02T07:18:46.298Z,59.22
2019-04-02T07:19:44.505Z,59.41
2019-04-02T07:20:48.301Z,60.96
2019-04-02T07:21:44.910Z,59.59
2019-04-02T07:22:45.141Z,60.30
2019-04-02T07:23:49.294Z,59.56
2019-04-02T07:24:47.305Z,58.80
2019-04-02T07:25:49.305Z,58.22
2019-04-02T07:26:45.916Z,58.06
2019-04-02T07:27:46.106Z,56.53
2019-04-02T07:28:48.338Z,56.59
2019-04-02T07:29:50.308Z,54.86
2019-04-02T07:30:48.786Z,54.48
2019-04-02T07:31:49.755Z,53.74
2019-04-02T07:32:51.758Z,53.64
2019-04-02T07:33:48.108Z,52.50
2019-04-02T07:35:04.251Z,52.59
2019-04-02T07:35:55.300Z,52.56
2019-04-02T07:36:47.634Z,52.91
2019-04-02T07:37:55.800Z,52.64
2019-04-02T07:38:48.049Z,51.28
2019-04-02T07:39:48.206Z,52.91
2019-04-02T07:40:50.298Z,52.36
2019-04-02T07:41:49.284Z,51.28
2019-04-02T07:42:50.301Z,51.10
2019-04-02T07:44:12.263Z,50.99
2019-04-02T07:44:48.976Z,51.54
2019-04-02T07:45:49.199Z,52.91
2019-04-02T07:46:49.675Z,52.52
2019-04-02T07:48:00.484Z,51.59
2019-04-02T07:48:49.868Z,51.61
2019-04-02T07:49:50.903Z,53.30
2019-04-02T07:50:51.007Z,54.61
2019-04-02T07:51:54.272Z,54.14
2019-04-02T07:53:06.298Z,53.18
2019-04-02T07:53:54.410Z,53.28
2019-04-02T07:56:25.408Z,54.33
2019-04-02T07:57:26.440Z,54.61
2019-04-02T07:58:23.792Z,54.83
2019-04-02T07:59:25.910Z,53.52
2019-04-02T08:00:24.242Z,52.63
2019-04-02T08:01:33.846Z,53.40
2019-04-02T08:02:26.390Z,54.04
2019-04-02T08:03:26.925Z,54.90
2019-04-02T08:04:25.155Z,55.19
2019-04-02T08:05:27.368Z,55.60
2019-04-02T08:06:32.776Z,54.74
2019-04-02T08:07:25.729Z,54.48
2019-04-02T08:08:27.893Z,54.67
2019-04-02T08:09:26.100Z,53.07
2019-04-02T08:10:26.316Z,52.11
2019-04-02T08:11:26.545Z,51.54
2019-04-02T08:12:30.420Z,51.18
2019-04-02T08:13:34.893Z,51.14
2019-04-02T08:14:28.892Z,50.56
2019-04-02T08:15:27.244Z,49.05
2019-04-02T08:16:33.425Z,48.64
2019-04-02T08:17:34.398Z,48.43
2019-04-02T08:18:28.853Z,48.64
2019-04-02T08:19:31.423Z,47.13
2019-04-02T08:20:52.223Z,46.86
2019-04-02T08:21:34.900Z,46.89
2019-04-02T08:22:31.354Z,46.74
2019-04-02T08:23:29.291Z,47.32
2019-04-02T08:24:30.968Z,47.30
2019-04-02T08:25:30.905Z,48.61
2019-04-02T08:26:32.999Z,49.48
2019-04-02T08:27:29.627Z,49.50
2019-04-02T08:28:31.868Z,49.41
2019-04-02T08:29:32.230Z,48.64
2019-04-02T08:30:30.202Z,48.69
2019-04-02T08:31:31.138Z,47.25
2019-04-02T08:32:30.573Z,47.15
2019-04-02T08:33:59.401Z,47.08
2019-04-02T08:34:31.411Z,47.39
2019-04-02T08:35:34.893Z,46.41
2019-04-02T08:37:07.895Z,45.64
2019-04-02T08:37:37.551Z,46.09
2019-04-02T08:38:33.401Z,46.28
2019-04-02T08:39:33.850Z,47.39
2019-04-02T08:40:32.873Z,47.31
2019-04-02T08:41:35.897Z,45.99
2019-04-02T08:42:32.355Z,44.07
2019-04-02T08:43:35.502Z,45.29
2019-04-02T08:44:34.401Z,45.21
2019-04-02T08:45:34.401Z,47.22
2019-04-02T08:46:33.862Z,48.88
2019-04-02T08:47:35.895Z,47.75
2019-04-02T08:48:40.896Z,46.31
2019-04-02T08:49:33.519Z,47.13
2019-04-02T08:50:33.621Z,47.41
2019-04-02T08:51:35.444Z,46.67
2019-04-02T08:52:34.010Z,46.23
2019-04-02T08:53:34.288Z,46.09
2019-04-02T08:54:36.877Z,44.19
2019-04-02T08:55:36.403Z,43.32
2019-04-02T08:56:38.406Z,42.57
2019-04-02T08:57:34.995Z,41.89
2019-04-02T08:58:37.333Z,42.79
2019-04-02T08:59:36.384Z,41.82
2019-04-02T09:00:35.623Z,41.24
2019-04-02T09:01:35.848Z,42.07
2019-04-02T09:02:53.862Z,43.13
2019-04-02T09:03:37.941Z,42.91
2019-04-02T09:04:36.404Z,43.20
2019-04-02T09:05:40.176Z,43.90
2019-04-02T09:06:46.855Z,43.05
2019-04-02T09:07:37.878Z,43.01
2019-04-02T09:08:39.487Z,44.22
2019-04-02T09:09:37.277Z,45.35
2019-04-02T09:10:37.464Z,46.09
2019-04-02T09:11:40.297Z,46.67
2019-04-02T09:12:38.917Z,47.36
2019-04-02T09:13:38.264Z,47.56
2019-04-02T09:14:41.901Z,47.49
2019-04-02T09:15:41.865Z,47.00
2019-04-02T09:16:41.361Z,46.74
2019-04-02T09:17:39.857Z,45.90
2019-04-02T09:18:40.902Z,44.11
2019-04-02T09:19:45.933Z,43.37
2019-04-02T09:21:05.868Z,42.52
2019-04-02T09:21:43.748Z,41.20
2019-04-02T09:22:41.307Z,40.03
2019-04-02T09:23:41.409Z,39.64
2019-04-02T09:24:40.000Z,39.87
2019-04-02T09:25:41.218Z,39.70
2019-04-02T09:26:40.424Z,39.90
2019-04-02T09:27:41.399Z,39.59
2019-04-02T09:28:56.405Z,39.82
2019-04-02T09:29:56.902Z,41.53
2019-04-02T09:30:48.262Z,42.67
2019-04-02T09:32:03.420Z,42.38
2019-04-02T09:32:41.602Z,42.67
2019-04-02T09:33:42.891Z,42.40
2019-04-02T09:34:42.007Z,42.35
2019-04-02T09:35:43.915Z,40.53
2019-04-02T09:36:43.902Z,40.36
2019-04-02T09:37:42.630Z,39.95
2019-04-02T09:38:44.411Z,40.12
2019-04-02T09:39:43.665Z,40.17
2019-04-02T09:40:43.212Z,38.83
2019-04-02T09:41:45.673Z,38.35
2019-04-02T09:42:45.416Z,39.49
2019-04-02T09:43:56.397Z,41.61
2019-04-02T09:44:45.030Z,41.11
2019-04-02T09:45:44.134Z,41.50
2019-04-02T09:46:44.634Z,43.33
2019-04-02T09:47:46.074Z,41.33
2019-04-02T09:48:46.424Z,40.24
2019-04-02T09:49:45.918Z,38.81
2019-04-02T09:50:46.868Z,38.60
2019-04-02T09:51:46.939Z,38.81
2019-04-02T09:52:46.212Z,39.57
2019-04-02T09:53:45.636Z,40.44
2019-04-02T09:54:47.425Z,39.84
2019-04-02T09:55:49.242Z,41.38
2019-04-02T09:56:46.268Z,41.48
2019-04-02T09:57:46.378Z,41.44
2019-04-02T09:58:47.883Z,41.36
2019-04-02T09:59:48.452Z,40.72
2019-04-02T10:00:48.858Z,41.15
2019-04-02T10:01:48.117Z,40.78
2019-04-02T10:02:50.902Z,39.90
2019-04-02T10:03:50.690Z,39.03
2019-04-02T10:04:49.406Z,42.36
2019-04-02T10:05:49.410Z,42.93
2019-04-02T10:06:50.922Z,42.46
2019-04-02T10:08:12.951Z,40.59
2019-04-02T10:08:49.352Z,40.47
2019-04-02T10:09:53.333Z,40.09
2019-04-02T10:10:52.682Z,39.51
2019-04-02T10:11:54.748Z,39.84
2019-04-02T10:12:52.698Z,38.60
2019-04-02T10:13:50.922Z,38.00
2019-04-02T10:14:55.461Z,40.07
2019-04-02T10:16:12.409Z,40.69
2019-04-02T10:16:51.912Z,38.46
2019-04-02T10:17:51.941Z,39.26
2019-04-02T10:18:52.603Z,38.62
2019-04-02T10:19:51.419Z,37.96
2019-04-02T10:20:52.008Z,36.04
2019-04-02T10:21:52.910Z,36.35
2019-04-02T10:22:52.907Z,35.54
2019-04-02T10:23:55.578Z,36.02
2019-04-02T10:25:08.245Z,35.94
2019-04-02T10:25:53.507Z,35.19
2019-04-02T10:26:53.015Z,35.28
2019-04-02T10:27:53.910Z,35.59
2019-04-02T10:28:53.628Z,34.22
2019-04-02T10:29:56.162Z,34.81
2019-04-02T10:30:56.413Z,34.64
2019-04-02T10:31:54.429Z,33.09
2019-04-02T10:32:56.374Z,33.84
2019-04-02T10:33:54.947Z,34.02
2019-04-02T10:34:57.461Z,35.69
2019-04-02T10:35:57.259Z,34.14
2019-04-02T10:36:56.778Z,33.64
2019-04-02T10:38:02.021Z,36.78
2019-04-02T10:38:54.098Z,39.61
2019-04-02T10:39:56.263Z,38.60
2019-04-02T10:40:58.409Z,35.82
2019-04-02T10:42:10.415Z,33.51
2019-04-02T10:42:56.911Z,32.05
2019-04-02T10:43:55.133Z,31.95
2019-04-02T10:44:56.942Z,32.73
2019-04-02T10:45:55.559Z,33.80
2019-04-02T10:46:57.409Z,34.20
2019-04-02T10:48:18.050Z,33.14
2019-04-02T10:49:12.136Z,32.32
2019-04-02T10:49:58.906Z,33.29
2019-04-02T10:51:00.639Z,34.04
2019-04-02T10:52:01.275Z,35.66
2019-04-02T10:52:59.387Z,37.53
2019-04-02T10:53:57.111Z,35.32
2019-04-02T10:54:59.747Z,34.48
2019-04-02T10:55:58.701Z,33.12
2019-04-02T10:56:59.542Z,33.23
2019-04-02T10:58:07.780Z,33.99
2019-04-02T10:59:00.083Z,34.19
2019-04-02T10:59:58.378Z,34.16
2019-04-02T11:00:58.510Z,34.44
2019-04-02T11:02:04.619Z,34.23
2019-04-02T11:02:59.186Z,34.04
2019-04-02T11:04:00.390Z,33.96
2019-04-02T11:05:02.553Z,34.74
2019-04-02T11:06:07.297Z,34.83
2019-04-02T11:07:00.928Z,36.44
2019-04-02T11:08:02.498Z,36.35
2019-04-02T11:09:04.364Z,36.77
2019-04-02T11:10:01.920Z,36.60
2019-04-02T11:11:02.026Z,35.01
2019-04-02T11:12:03.139Z,35.67
2019-04-02T11:13:03.247Z,36.80
2019-04-02T11:14:08.198Z,36.52
2019-04-02T11:15:05.589Z,35.94
2019-04-02T11:16:06.885Z,37.01
2019-04-02T11:17:05.753Z,37.24
2019-04-02T11:18:07.459Z,39.64
2019-04-02T11:19:10.150Z,38.79
2019-04-02T11:20:02.178Z,38.60
2019-04-02T11:21:08.365Z,38.02
2019-04-02T11:22:06.875Z,38.71
2019-04-02T11:23:06.375Z,38.71
2019-04-02T11:24:06.807Z,38.20
2019-04-02T11:25:04.928Z,38.29
2019-04-02T11:26:04.910Z,40.11
2019-04-02T11:27:03.506Z,39.55
2019-04-02T11:28:04.740Z,39.84
2019-04-02T11:29:05.910Z,40.23
2019-04-02T11:30:10.921Z,39.95
2019-04-02T11:31:07.915Z,38.79
2019-04-02T11:32:09.871Z,39.11
2019-04-02T11:33:07.377Z,38.33
2019-04-02T11:34:05.896Z,40.09
2019-04-02T11:35:06.573Z,38.73
2019-04-02T11:36:06.388Z,38.53
2019-04-02T11:37:14.731Z,37.92
2019-04-02T11:38:13.411Z,37.81
2019-04-02T11:39:07.410Z,39.69
2019-04-02T11:40:07.915Z,40.26
2019-04-02T11:41:06.127Z,41.35
2019-04-02T11:42:06.354Z,41.56
2019-04-02T11:43:06.614Z,41.35
2019-04-02T11:44:08.411Z,42.21
2019-04-02T11:45:06.889Z,42.56
2019-04-02T11:46:08.372Z,43.31
2019-04-02T11:47:10.367Z,43.60
2019-04-02T11:48:09.427Z,44.29
2019-04-02T11:49:09.468Z,43.62
2019-04-02T11:50:11.411Z,42.85
2019-04-02T11:51:09.900Z,43.24
2019-04-02T11:52:09.923Z,43.54
2019-04-02T11:53:15.916Z,42.68
2019-04-02T11:54:19.250Z,42.75
2019-04-02T11:55:10.462Z,43.14
2019-04-02T11:56:09.091Z,43.50
2019-04-02T11:57:10.917Z,44.37
2019-04-02T11:58:16.655Z,44.95
2019-04-02T11:59:32.422Z,44.97
2019-04-02T12:00:15.378Z,43.98
2019-04-02T12:01:10.103Z,43.89
2019-04-02T12:02:11.326Z,44.37
2019-04-02T12:03:10.544Z,43.60
2019-04-02T12:04:11.424Z,43.52
2019-04-02T12:05:20.841Z,43.41
2019-04-02T12:06:13.413Z,44.18
2019-04-02T12:07:14.916Z,44.20
2019-04-02T12:08:15.564Z,43.50
2019-04-02T12:09:13.418Z,43.31
2019-04-02T12:10:13.420Z,44.37
2019-04-02T12:11:11.877Z,43.50
2019-04-02T12:12:13.919Z,43.04
2019-04-02T12:13:12.251Z,43.14
2019-04-02T12:14:16.417Z,44.32
2019-04-02T12:15:39.886Z,44.08
2019-04-02T12:16:15.776Z,44.46
2019-04-02T12:17:13.652Z,44.73
2019-04-02T12:18:14.433Z,45.51
2019-04-02T12:19:14.495Z,45.21
2019-04-02T12:20:15.396Z,46.64
2019-04-02T12:21:17.172Z,46.76
2019-04-02T12:22:16.393Z,47.12
2019-04-02T12:23:14.277Z,46.35
2019-04-02T12:24:15.420Z,46.25
2019-04-02T12:25:22.429Z,46.08
2019-04-02T12:26:18.802Z,45.72
2019-04-02T12:27:15.004Z,45.60
2019-04-02T12:28:15.257Z,45.89
2019-04-02T12:29:17.877Z,46.47
2019-04-02T12:30:15.478Z,47.14
2019-04-02T12:31:22.578Z,48.21
2019-04-02T12:32:16.906Z,46.37
2019-04-02T12:33:17.937Z,46.47
2019-04-02T12:34:18.369Z,46.69
2019-04-02T12:35:19.921Z,45.92
2019-04-02T12:36:18.426Z,45.72
2019-04-02T12:37:18.424Z,45.53
2019-04-02T12:38:18.422Z,45.94
2019-04-02T12:39:20.422Z,45.82
2019-04-02T12:40:32.951Z,45.62
2019-04-02T12:41:20.352Z,45.82
2019-04-02T12:42:25.434Z,45.62
2019-04-02T12:43:23.424Z,45.72
2019-04-02T12:44:18.055Z,45.75
2019-04-02T12:45:20.919Z,45.94
2019-04-02T12:46:18.877Z,46.15
2019-04-02T12:47:19.939Z,45.79
2019-04-02T12:48:26.891Z,44.36
2019-04-02T12:49:21.827Z,44.46
2019-04-02T12:50:20.933Z,44.38
2019-04-02T12:51:20.184Z,43.08
2019-04-02T12:52:20.930Z,44.24
2019-04-02T12:53:20.887Z,44.34
2019-04-02T12:54:21.554Z,44.26
2019-04-02T12:55:21.923Z,43.16
2019-04-02T12:56:21.927Z,44.32